Lesley Pg — MXUG5 — position and weather

sailwx.info

Track history (hours):
 
Tides and Currents Weather Stations Pressure Air Temp Water Temp Dewpoint Dewpoint Depression Visibility Wind Speed Wind Dir Waves Ship Positions

Lesley Pg

Last reported at 2014-Nov-13 20:24 UTC. Time now 2014-Nov-22 02:51 UTC.
Position N 15°52' W 061°46'.
Warning: this ship's position is 8 days out of date.

Length 102 m; draft 5.8 m.

Type: Tanker. MMSI: 234910000.

Date/timePositionNaut miles runAvg speedWind from/ knotsBaromVisibWave heightAir tempDewpointWater temp
2014-Nov-13 20:24N 15°52' W 061°46'3410.8
2014-Nov-13 17:14N 16°25' W 061°56'811.4
2014-Nov-13 16:33N 16°33' W 061°56'1111.3
2014-Nov-13 15:33N 16°44' W 061°56'1211.6
2014-Nov-13 14:33N 16°56' W 061°57'  
2014-Nov-09 18:32N 17°57' W 063°01'6 4.7
2014-Nov-09 17:22N 18°01' W 063°05'0 0.0
2014-Nov-09 16:25N 18°01' W 063°05'0 0.0
2014-Nov-09 15:25N 18°01' W 063°05'0 0.0
2014-Nov-09 14:29N 18°01' W 063°05'0 0.0
2014-Nov-09 13:25N 18°01' W 063°05'0 0.0
2014-Nov-09 12:31N 18°01' W 063°05'0 0.0
2014-Nov-09 11:28N 18°01' W 063°05'0 0.0
2014-Nov-09 10:31N 18°01' W 063°05'0 0.0
2014-Nov-09 09:31N 18°01' W 063°05'0 0.0
2014-Nov-09 08:19N 18°01' W 063°05'0 0.0
2014-Nov-09 07:31N 18°01' W 063°05'0 0.0
2014-Nov-09 06:31N 18°01' W 063°05'0 0.0
2014-Nov-09 05:19N 18°01' W 063°05'0 0.0
2014-Nov-09 04:22N 18°01' W 063°05'0 0.0
2014-Nov-09 03:25N 18°01' W 063°05'0 0.0
2014-Nov-09 02:25N 18°01' W 063°05'0 0.0
2014-Nov-09 01:28N 18°01' W 063°05'0 0.0
2014-Nov-09 00:25N 18°01' W 063°05'0 0.0
2014-Nov-08 23:28N 18°01' W 063°05'0 0.0
2014-Nov-08 22:31N 18°01' W 063°05'0 0.0
2014-Nov-08 21:31N 18°01' W 063°05'0 0.0
2014-Nov-08 20:28N 18°01' W 063°05'0 0.0
2014-Nov-08 19:28N 18°01' W 063°05'0 0.0
2014-Nov-08 18:31N 18°01' W 063°05'0 0.0
2014-Nov-08 17:31N 18°01' W 063°05'0 0.0
2014-Nov-08 16:22N 18°01' W 063°05'0 0.0
2014-Nov-08 15:07N 18°01' W 063°05'0 0.0
2014-Nov-08 14:25N 18°01' W 063°05'0 0.0
2014-Nov-08 13:25N 18°01' W 063°05'0 0.0
2014-Nov-08 12:25N 18°01' W 063°05'0 0.0
2014-Nov-08 11:25N 18°01' W 063°05'1 1.4
2014-Nov-08 10:33N 18°00' W 063°05'4 4.1
2014-Nov-08 09:33N 17°56' W 063°03'108 2.2
2014-Nov-06 08:30N 16°22' W 062°06'1411.5
2014-Nov-06 07:18N 16°33' W 062°15'1111.4
2014-Nov-06 06:18N 16°43' W 062°22'2 0.1
2014-Nov-05 08:33N 16°45' W 062°22'1211.9
2014-Nov-05 07:32N 16°35' W 062°14'  
Track history (hours):
 
Tides and Currents Weather Stations Pressure Air Temp Water Temp Dewpoint Dewpoint Depression Visibility Wind Speed Wind Dir Waves Ship Positions

Lesley Pg

Last reported at 2014-Nov-13 20:24 UTC. Time now 2014-Nov-22 02:51 UTC.
Position N 15°52' W 061°46'.
Warning: this ship's position is 8 days out of date.

Length 102 m; draft 5.8 m.

Type: Tanker. MMSI: 234910000.

Date/timePositionNaut miles runAvg speedWind from/ knotsBaromVisibWave heightAir tempDewpointWater temp
2014-Nov-13 20:24N 15°52' W 061°46'3410.8
2014-Nov-13 17:14N 16°25' W 061°56'811.4
2014-Nov-13 16:33N 16°33' W 061°56'1111.3
2014-Nov-13 15:33N 16°44' W 061°56'1211.6
2014-Nov-13 14:33N 16°56' W 061°57'  
2014-Nov-09 18:32N 17°57' W 063°01'6 4.7
2014-Nov-09 17:22N 18°01' W 063°05'0 0.0
2014-Nov-09 16:25N 18°01' W 063°05'0 0.0
2014-Nov-09 15:25N 18°01' W 063°05'0 0.0
2014-Nov-09 14:29N 18°01' W 063°05'0 0.0
2014-Nov-09 13:25N 18°01' W 063°05'0 0.0
2014-Nov-09 12:31N 18°01' W 063°05'0 0.0
2014-Nov-09 11:28N 18°01' W 063°05'0 0.0
2014-Nov-09 10:31N 18°01' W 063°05'0 0.0
2014-Nov-09 09:31N 18°01' W 063°05'0 0.0
2014-Nov-09 08:19N 18°01' W 063°05'0 0.0
2014-Nov-09 07:31N 18°01' W 063°05'0 0.0
2014-Nov-09 06:31N 18°01' W 063°05'0 0.0
2014-Nov-09 05:19N 18°01' W 063°05'0 0.0
2014-Nov-09 04:22N 18°01' W 063°05'0 0.0
2014-Nov-09 03:25N 18°01' W 063°05'0 0.0
2014-Nov-09 02:25N 18°01' W 063°05'0 0.0
2014-Nov-09 01:28N 18°01' W 063°05'0 0.0
2014-Nov-09 00:25N 18°01' W 063°05'0 0.0
2014-Nov-08 23:28N 18°01' W 063°05'0 0.0
2014-Nov-08 22:31N 18°01' W 063°05'0 0.0
2014-Nov-08 21:31N 18°01' W 063°05'0 0.0
2014-Nov-08 20:28N 18°01' W 063°05'0 0.0
2014-Nov-08 19:28N 18°01' W 063°05'0 0.0
2014-Nov-08 18:31N 18°01' W 063°05'0 0.0
2014-Nov-08 17:31N 18°01' W 063°05'0 0.0
2014-Nov-08 16:22N 18°01' W 063°05'0 0.0
2014-Nov-08 15:07N 18°01' W 063°05'0 0.0
2014-Nov-08 14:25N 18°01' W 063°05'0 0.0
2014-Nov-08 13:25N 18°01' W 063°05'0 0.0
2014-Nov-08 12:25N 18°01' W 063°05'0 0.0
2014-Nov-08 11:25N 18°01' W 063°05'1 1.4
2014-Nov-08 10:33N 18°00' W 063°05'4 4.1
2014-Nov-08 09:33N 17°56' W 063°03'108 2.2
2014-Nov-06 08:30N 16°22' W 062°06'1411.5
2014-Nov-06 07:18N 16°33' W 062°15'1111.4
2014-Nov-06 06:18N 16°43' W 062°22'2 0.1
2014-Nov-05 08:33N 16°45' W 062°22'1211.9
2014-Nov-05 07:32N 16°35' W 062°14'  

Dump ship's entire track history